sensor_id;sensor_type;location;lat;lon;timestamp;pressure;altitude;pressure_sealevel;temperature;humidity
11415;BME280;5763;42.714;23.244;2023-03-14T00:00:48;94783.66;;;6.33;47.58
11415;BME280;5763;42.714;23.244;2023-03-14T00:03:15;94778.31;;;6.30;47.60
11415;BME280;5763;42.714;23.244;2023-03-14T00:05:42;94777.69;;;6.22;47.91
11415;BME280;5763;42.714;23.244;2023-03-14T00:08:08;94778.03;;;6.24;47.52
11415;BME280;5763;42.714;23.244;2023-03-14T00:10:36;94763.25;;;6.25;48.24
11415;BME280;5763;42.714;23.244;2023-03-14T00:13:04;94761.78;;;6.21;48.84
11415;BME280;5763;42.714;23.244;2023-03-14T00:15:32;94763.00;;;6.20;48.67
11415;BME280;5763;42.714;23.244;2023-03-14T00:17:59;94767.66;;;6.19;47.94
11415;BME280;5763;42.714;23.244;2023-03-14T00:20:26;94764.78;;;6.26;48.02
11415;BME280;5763;42.714;23.244;2023-03-14T00:22:53;94747.72;;;6.26;48.51
11415;BME280;5763;42.714;23.244;2023-03-14T00:25:20;94744.47;;;6.15;48.68
11415;BME280;5763;42.714;23.244;2023-03-14T00:27:47;94761.09;;;6.17;49.05
11415;BME280;5763;42.714;23.244;2023-03-14T00:30:15;94747.84;;;6.19;48.64
11415;BME280;5763;42.714;23.244;2023-03-14T00:32:42;94750.38;;;6.10;49.23
11415;BME280;5763;42.714;23.244;2023-03-14T00:35:09;94733.72;;;6.08;48.58
11415;BME280;5763;42.714;23.244;2023-03-14T00:37:36;94733.53;;;5.99;48.96
11415;BME280;5763;42.714;23.244;2023-03-14T00:40:04;94732.22;;;5.87;49.27
11415;BME280;5763;42.714;23.244;2023-03-14T00:42:32;94741.91;;;5.88;49.19
11415;BME280;5763;42.714;23.244;2023-03-14T00:44:59;94739.66;;;5.83;49.46
11415;BME280;5763;42.714;23.244;2023-03-14T00:47:27;94738.00;;;5.89;49.23
11415;BME280;5763;42.714;23.244;2023-03-14T00:49:53;94725.25;;;5.86;49.18
11415;BME280;5763;42.714;23.244;2023-03-14T00:52:20;94731.31;;;5.94;49.78
11415;BME280;5763;42.714;23.244;2023-03-14T00:54:47;94736.31;;;5.95;49.73
11415;BME280;5763;42.714;23.244;2023-03-14T00:57:13;94728.72;;;5.87;49.47
11415;BME280;5763;42.714;23.244;2023-03-14T00:59:40;94715.66;;;5.82;49.23
11415;BME280;5763;42.714;23.244;2023-03-14T01:02:07;94724.31;;;5.73;49.63
11415;BME280;5763;42.714;23.244;2023-03-14T01:04:35;94716.94;;;5.74;49.55
11415;BME280;5763;42.714;23.244;2023-03-14T01:07:03;94714.56;;;5.76;49.36
11415;BME280;5763;42.714;23.244;2023-03-14T01:09:29;94717.22;;;5.79;49.35
11415;BME280;5763;42.714;23.244;2023-03-14T01:11:56;94710.75;;;5.73;49.34
11415;BME280;5763;42.714;23.244;2023-03-14T01:14:23;94707.88;;;5.61;49.88
11415;BME280;5763;42.714;23.244;2023-03-14T01:16:50;94717.94;;;5.64;49.92
11415;BME280;5763;42.714;23.244;2023-03-14T01:19:16;94710.44;;;5.68;50.05
11415;BME280;5763;42.714;23.244;2023-03-14T01:21:44;94706.78;;;5.58;50.00
11415;BME280;5763;42.714;23.244;2023-03-14T01:24:11;94695.22;;;5.54;50.04
11415;BME280;5763;42.714;23.244;2023-03-14T01:26:38;94681.47;;;5.45;50.46
11415;BME280;5763;42.714;23.244;2023-03-14T01:29:05;94685.22;;;5.51;50.60
11415;BME280;5763;42.714;23.244;2023-03-14T01:31:31;94687.56;;;5.49;50.92
11415;BME280;5763;42.714;23.244;2023-03-14T01:33:58;94690.00;;;5.44;50.64
11415;BME280;5763;42.714;23.244;2023-03-14T01:36:25;94696.19;;;5.44;50.42
11415;BME280;5763;42.714;23.244;2023-03-14T01:38:53;94686.25;;;5.38;49.70
11415;BME280;5763;42.714;23.244;2023-03-14T01:41:23;94688.53;;;5.39;50.15
11415;BME280;5763;42.714;23.244;2023-03-14T01:43:50;94675.75;;;5.40;50.79
11415;BME280;5763;42.714;23.244;2023-03-14T01:46:25;94670.31;;;5.40;50.85
11415;BME280;5763;42.714;23.244;2023-03-14T01:48:57;94668.72;;;5.42;50.56
11415;BME280;5763;42.714;23.244;2023-03-14T01:51:28;94676.38;;;5.47;50.19
11415;BME280;5763;42.714;23.244;2023-03-14T01:54:02;94667.44;;;5.47;50.58
11415;BME280;5763;42.714;23.244;2023-03-14T01:56:30;94673.81;;;5.40;49.25
11415;BME280;5763;42.714;23.244;2023-03-14T01:58:58;94670.59;;;5.45;50.04
11415;BME280;5763;42.714;23.244;2023-03-14T02:01:28;94664.75;;;5.47;49.92
11415;BME280;5763;42.714;23.244;2023-03-14T02:03:57;94657.66;;;5.33;50.71
11415;BME280;5763;42.714;23.244;2023-03-14T02:06:30;94667.53;;;5.43;49.91
11415;BME280;5763;42.714;23.244;2023-03-14T02:09:00;94670.25;;;5.43;49.70
11415;BME280;5763;42.714;23.244;2023-03-14T02:11:29;94673.66;;;5.47;48.87
11415;BME280;5763;42.714;23.244;2023-03-14T02:13:57;94655.63;;;5.37;48.10
11415;BME280;5763;42.714;23.244;2023-03-14T02:16:24;94656.03;;;5.36;48.25
11415;BME280;5763;42.714;23.244;2023-03-14T02:18:52;94652.91;;;5.37;48.35
11415;BME280;5763;42.714;23.244;2023-03-14T02:21:22;94656.75;;;5.40;47.92
11415;BME280;5763;42.714;23.244;2023-03-14T02:23:54;94656.56;;;5.50;48.37
11415;BME280;5763;42.714;23.244;2023-03-14T02:26:28;94661.41;;;5.39;48.54
11415;BME280;5763;42.714;23.244;2023-03-14T02:28:59;94667.88;;;5.45;48.13
11415;BME280;5763;42.714;23.244;2023-03-14T02:31:26;94668.63;;;5.46;49.12
11415;BME280;5763;42.714;23.244;2023-03-14T02:33:54;94659.53;;;5.36;49.18
11415;BME280;5763;42.714;23.244;2023-03-14T02:36:21;94670.38;;;5.36;48.81
11415;BME280;5763;42.714;23.244;2023-03-14T02:38:52;94665.94;;;5.26;48.74
11415;BME280;5763;42.714;23.244;2023-03-14T02:41:20;94667.75;;;5.33;49.39
11415;BME280;5763;42.714;23.244;2023-03-14T02:43:46;94665.44;;;5.31;49.85
11415;BME280;5763;42.714;23.244;2023-03-14T02:46:17;94667.53;;;5.43;49.72
11415;BME280;5763;42.714;23.244;2023-03-14T02:48:47;94658.69;;;5.39;49.77
11415;BME280;5763;42.714;23.244;2023-03-14T02:51:15;94665.38;;;5.35;49.76
11415;BME280;5763;42.714;23.244;2023-03-14T02:53:42;94671.69;;;5.28;49.99
11415;BME280;5763;42.714;23.244;2023-03-14T02:56:09;94668.91;;;5.32;49.20
11415;BME280;5763;42.714;23.244;2023-03-14T02:58:36;94675.50;;;5.31;48.92
11415;BME280;5763;42.714;23.244;2023-03-14T03:01:04;94670.94;;;5.28;49.20
11415;BME280;5763;42.714;23.244;2023-03-14T03:03:32;94660.44;;;5.30;48.74
11415;BME280;5763;42.714;23.244;2023-03-14T03:05:59;94649.75;;;5.19;49.10
11415;BME280;5763;42.714;23.244;2023-03-14T03:08:27;94675.09;;;5.32;49.43
11415;BME280;5763;42.714;23.244;2023-03-14T03:10:56;94681.56;;;5.19;48.88
11415;BME280;5763;42.714;23.244;2023-03-14T03:13:23;94673.22;;;5.29;49.43
11415;BME280;5763;42.714;23.244;2023-03-14T03:15:50;94671.34;;;5.26;50.10
11415;BME280;5763;42.714;23.244;2023-03-14T03:18:16;94666.03;;;5.19;50.05
11415;BME280;5763;42.714;23.244;2023-03-14T03:20:45;94658.28;;;5.21;50.10
11415;BME280;5763;42.714;23.244;2023-03-14T03:23:12;94657.78;;;5.26;50.16
11415;BME280;5763;42.714;23.244;2023-03-14T03:25:39;94671.69;;;5.28;50.31
11415;BME280;5763;42.714;23.244;2023-03-14T03:28:05;94668.22;;;5.28;50.24
11415;BME280;5763;42.714;23.244;2023-03-14T03:30:36;94661.72;;;5.22;50.32
11415;BME280;5763;42.714;23.244;2023-03-14T03:33:03;94656.38;;;5.18;50.28
11415;BME280;5763;42.714;23.244;2023-03-14T03:35:30;94669.03;;;5.25;50.49
11415;BME280;5763;42.714;23.244;2023-03-14T03:37:58;94661.06;;;5.18;50.66
11415;BME280;5763;42.714;23.244;2023-03-14T03:40:25;94654.69;;;5.05;50.33
11415;BME280;5763;42.714;23.244;2023-03-14T03:42:51;94665.00;;;5.13;50.45
11415;BME280;5763;42.714;23.244;2023-03-14T03:45:18;94670.41;;;5.13;50.51
11415;BME280;5763;42.714;23.244;2023-03-14T03:47:45;94664.31;;;5.09;50.39
11415;BME280;5763;42.714;23.244;2023-03-14T03:50:11;94664.34;;;5.06;50.79
11415;BME280;5763;42.714;23.244;2023-03-14T03:52:38;94662.06;;;5.04;51.03
11415;BME280;5763;42.714;23.244;2023-03-14T03:55:07;94663.88;;;5.11;50.09
11415;BME280;5763;42.714;23.244;2023-03-14T03:57:34;94664.31;;;5.09;50.18
11415;BME280;5763;42.714;23.244;2023-03-14T04:00:01;94667.06;;;5.06;50.48
11415;BME280;5763;42.714;23.244;2023-03-14T04:02:29;94647.41;;;4.79;50.37
11415;BME280;5763;42.714;23.244;2023-03-14T04:04:56;94671.25;;;5.10;50.70
11415;BME280;5763;42.714;23.244;2023-03-14T04:07:22;94664.00;;;5.04;50.86
11415;BME280;5763;42.714;23.244;2023-03-14T04:09:49;94672.84;;;5.08;50.31
11415;BME280;5763;42.714;23.244;2023-03-14T04:12:17;94656.13;;;4.90;50.57
11415;BME280;5763;42.714;23.244;2023-03-14T04:14:45;94658.09;;;4.89;50.76
11415;BME280;5763;42.714;23.244;2023-03-14T04:17:12;94650.78;;;4.86;50.98
11415;BME280;5763;42.714;23.244;2023-03-14T04:19:38;94672.94;;;4.81;50.36
11415;BME280;5763;42.714;23.244;2023-03-14T04:22:06;94646.13;;;4.87;49.90
11415;BME280;5763;42.714;23.244;2023-03-14T04:24:32;94651.47;;;4.90;49.84
11415;BME280;5763;42.714;23.244;2023-03-14T04:26:59;94635.69;;;4.85;49.49
11415;BME280;5763;42.714;23.244;2023-03-14T04:29:27;94630.53;;;4.91;49.53
11415;BME280;5763;42.714;23.244;2023-03-14T04:31:54;94639.22;;;4.82;50.04
11415;BME280;5763;42.714;23.244;2023-03-14T04:34:21;94630.28;;;4.85;50.57
11415;BME280;5763;42.714;23.244;2023-03-14T04:36:48;94629.91;;;4.83;50.29
11415;BME280;5763;42.714;23.244;2023-03-14T04:39:14;94618.38;;;4.79;49.94
11415;BME280;5763;42.714;23.244;2023-03-14T04:41:41;94622.25;;;4.78;50.56
11415;BME280;5763;42.714;23.244;2023-03-14T04:44:09;94613.84;;;4.73;50.63
11415;BME280;5763;42.714;23.244;2023-03-14T04:46:37;94620.84;;;4.70;50.68
11415;BME280;5763;42.714;23.244;2023-03-14T04:49:04;94625.66;;;4.82;50.21
11415;BME280;5763;42.714;23.244;2023-03-14T04:51:31;94619.53;;;4.78;49.98
11415;BME280;5763;42.714;23.244;2023-03-14T04:53:58;94612.09;;;4.82;50.20
11415;BME280;5763;42.714;23.244;2023-03-14T04:56:24;94619.13;;;4.80;49.86
11415;BME280;5763;42.714;23.244;2023-03-14T04:58:51;94622.22;;;4.82;49.73
11415;BME280;5763;42.714;23.244;2023-03-14T05:01:18;94619.75;;;4.87;49.84
11415;BME280;5763;42.714;23.244;2023-03-14T05:03:46;94607.31;;;4.70;50.08
11415;BME280;5763;42.714;23.244;2023-03-14T05:06:13;94605.34;;;4.71;50.25
11415;BME280;5763;42.714;23.244;2023-03-14T05:08:40;94615.22;;;4.81;50.30
11415;BME280;5763;42.714;23.244;2023-03-14T05:11:09;94608.09;;;4.90;50.60
11415;BME280;5763;42.714;23.244;2023-03-14T05:13:36;94613.78;;;4.96;50.44
11415;BME280;5763;42.714;23.244;2023-03-14T05:16:05;94614.34;;;4.87;51.29
11415;BME280;5763;42.714;23.244;2023-03-14T05:18:32;94616.47;;;4.99;51.07
11415;BME280;5763;42.714;23.244;2023-03-14T05:21:00;94604.06;;;4.98;50.61
11415;BME280;5763;42.714;23.244;2023-03-14T05:23:27;94615.06;;;4.91;50.02
11415;BME280;5763;42.714;23.244;2023-03-14T05:25:54;94614.16;;;4.98;49.42
11415;BME280;5763;42.714;23.244;2023-03-14T05:28:21;94611.78;;;5.00;49.44
11415;BME280;5763;42.714;23.244;2023-03-14T05:30:48;94609.50;;;4.98;49.85
11415;BME280;5763;42.714;23.244;2023-03-14T05:33:15;94619.81;;;5.07;49.95
11415;BME280;5763;42.714;23.244;2023-03-14T05:35:41;94614.66;;;5.12;49.67
11415;BME280;5763;42.714;23.244;2023-03-14T05:38:10;94610.81;;;5.29;49.36
11415;BME280;5763;42.714;23.244;2023-03-14T05:40:37;94607.00;;;5.27;49.01
11415;BME280;5763;42.714;23.244;2023-03-14T05:43:03;94610.34;;;5.34;49.93
11415;BME280;5763;42.714;23.244;2023-03-14T05:45:33;94608.13;;;5.49;49.19
11415;BME280;5763;42.714;23.244;2023-03-14T05:48:00;94609.50;;;5.57;48.81
11415;BME280;5763;42.714;23.244;2023-03-14T05:50:27;94603.78;;;5.71;48.53
11415;BME280;5763;42.714;23.244;2023-03-14T05:52:54;94615.56;;;5.84;47.74
11415;BME280;5763;42.714;23.244;2023-03-14T05:55:22;94613.09;;;5.89;47.87
11415;BME280;5763;42.714;23.244;2023-03-14T05:57:49;94616.81;;;5.95;48.19
11415;BME280;5763;42.714;23.244;2023-03-14T06:00:17;94605.34;;;5.88;48.40
11415;BME280;5763;42.714;23.244;2023-03-14T06:02:44;94606.63;;;5.83;48.56
11415;BME280;5763;42.714;23.244;2023-03-14T06:05:10;94606.47;;;5.90;47.81
11415;BME280;5763;42.714;23.244;2023-03-14T06:07:37;94609.56;;;6.08;47.26
11415;BME280;5763;42.714;23.244;2023-03-14T06:10:05;94609.56;;;6.24;46.56
11415;BME280;5763;42.714;23.244;2023-03-14T06:12:33;94599.03;;;6.26;46.65
11415;BME280;5763;42.714;23.244;2023-03-14T06:15:00;94596.00;;;6.24;47.22
11415;BME280;5763;42.714;23.244;2023-03-14T06:17:27;94608.56;;;6.34;46.49
11415;BME280;5763;42.714;23.244;2023-03-14T06:19:54;94613.16;;;6.37;46.56
11415;BME280;5763;42.714;23.244;2023-03-14T06:22:21;94613.72;;;6.45;46.32
11415;BME280;5763;42.714;23.244;2023-03-14T06:24:48;94616.22;;;6.39;46.21
11415;BME280;5763;42.714;23.244;2023-03-14T06:27:14;94615.00;;;6.40;46.13
11415;BME280;5763;42.714;23.244;2023-03-14T06:29:43;94606.09;;;6.40;46.27
11415;BME280;5763;42.714;23.244;2023-03-14T06:32:09;94608.28;;;6.29;46.34
11415;BME280;5763;42.714;23.244;2023-03-14T06:34:36;94603.81;;;6.38;46.60
11415;BME280;5763;42.714;23.244;2023-03-14T06:37:03;94607.63;;;6.57;46.55
11415;BME280;5763;42.714;23.244;2023-03-14T06:39:31;94605.50;;;6.64;46.67
11415;BME280;5763;42.714;23.244;2023-03-14T06:41:58;94608.72;;;6.75;46.58
11415;BME280;5763;42.714;23.244;2023-03-14T06:44:24;94602.44;;;6.78;46.78
11415;BME280;5763;42.714;23.244;2023-03-14T06:46:53;94602.59;;;6.71;47.27
11415;BME280;5763;42.714;23.244;2023-03-14T06:49:19;94600.19;;;6.89;47.07
11415;BME280;5763;42.714;23.244;2023-03-14T06:51:46;94585.34;;;7.06;46.55
11415;BME280;5763;42.714;23.244;2023-03-14T06:54:14;94587.34;;;6.90;47.14
11415;BME280;5763;42.714;23.244;2023-03-14T06:56:41;94578.47;;;6.73;46.99
11415;BME280;5763;42.714;23.244;2023-03-14T06:59:07;94588.47;;;6.76;46.70
11415;BME280;5763;42.714;23.244;2023-03-14T07:01:34;94579.25;;;7.02;46.08
11415;BME280;5763;42.714;23.244;2023-03-14T07:04:02;94573.00;;;7.18;46.61
11415;BME280;5763;42.714;23.244;2023-03-14T07:06:30;94584.22;;;7.20;46.07
11415;BME280;5763;42.714;23.244;2023-03-14T07:08:57;94582.47;;;7.26;45.58
11415;BME280;5763;42.714;23.244;2023-03-14T07:11:24;94578.53;;;7.43;45.48
11415;BME280;5763;42.714;23.244;2023-03-14T07:13:51;94578.53;;;7.43;45.95
11415;BME280;5763;42.714;23.244;2023-03-14T07:16:17;94582.00;;;7.43;46.08
11415;BME280;5763;42.714;23.244;2023-03-14T07:18:45;94568.81;;;7.42;45.05
11415;BME280;5763;42.714;23.244;2023-03-14T07:21:13;94578.00;;;7.60;44.82
11415;BME280;5763;42.714;23.244;2023-03-14T07:23:40;94583.16;;;7.83;44.43
11415;BME280;5763;42.714;23.244;2023-03-14T07:26:07;94567.38;;;7.91;45.15
11415;BME280;5763;42.714;23.244;2023-03-14T07:28:33;94573.34;;;7.98;44.69
11415;BME280;5763;42.714;23.244;2023-03-14T07:31:00;94560.41;;;8.02;44.59
11415;BME280;5763;42.714;23.244;2023-03-14T07:33:27;94563.13;;;8.02;44.31
11415;BME280;5763;42.714;23.244;2023-03-14T07:35:53;94562.56;;;7.82;43.91
11415;BME280;5763;42.714;23.244;2023-03-14T07:38:22;94549.59;;;7.86;43.84
11415;BME280;5763;42.714;23.244;2023-03-14T07:40:48;94549.50;;;8.15;43.20
11415;BME280;5763;42.714;23.244;2023-03-14T07:43:15;94557.22;;;8.41;43.89
11415;BME280;5763;42.714;23.244;2023-03-14T07:45:45;94554.41;;;8.32;43.57
11415;BME280;5763;42.714;23.244;2023-03-14T07:48:12;94551.16;;;8.25;43.72
11415;BME280;5763;42.714;23.244;2023-03-14T07:50:39;94551.44;;;8.39;42.82
11415;BME280;5763;42.714;23.244;2023-03-14T07:53:06;94551.44;;;8.52;42.29
11415;BME280;5763;42.714;23.244;2023-03-14T07:55:34;94544.13;;;8.49;42.93
11415;BME280;5763;42.714;23.244;2023-03-14T07:58:01;94513.72;;;8.38;43.75
11415;BME280;5763;42.714;23.244;2023-03-14T08:00:28;94544.75;;;8.65;43.42
11415;BME280;5763;42.714;23.244;2023-03-14T08:02:55;94535.25;;;8.91;42.78
11415;BME280;5763;42.714;23.244;2023-03-14T08:05:21;94539.22;;;8.90;42.72
11415;BME280;5763;42.714;23.244;2023-03-14T08:07:48;94536.03;;;8.92;42.58
11415;BME280;5763;42.714;23.244;2023-03-14T08:10:15;94537.63;;;9.23;42.52
11415;BME280;5763;42.714;23.244;2023-03-14T08:12:48;94544.81;;;9.51;42.04
11415;BME280;5763;42.714;23.244;2023-03-14T08:15:16;94533.13;;;9.81;40.72
11415;BME280;5763;42.714;23.244;2023-03-14T08:17:43;94526.44;;;10.13;40.70
11415;BME280;5763;42.714;23.244;2023-03-14T08:20:10;94528.47;;;10.30;39.27
11415;BME280;5763;42.714;23.244;2023-03-14T08:22:38;94532.88;;;10.28;39.68
11415;BME280;5763;42.714;23.244;2023-03-14T08:25:06;94527.03;;;10.47;39.14
11415;BME280;5763;42.714;23.244;2023-03-14T08:27:32;94530.97;;;10.55;39.18
11415;BME280;5763;42.714;23.244;2023-03-14T08:30:01;94527.22;;;10.89;38.52
11415;BME280;5763;42.714;23.244;2023-03-14T08:32:28;94517.66;;;11.11;38.34
11415;BME280;5763;42.714;23.244;2023-03-14T08:34:54;94523.09;;;11.38;37.55
11415;BME280;5763;42.714;23.244;2023-03-14T08:37:21;94514.53;;;11.54;36.84
11415;BME280;5763;42.714;23.244;2023-03-14T08:39:49;94511.44;;;11.88;36.99
11415;BME280;5763;42.714;23.244;2023-03-14T08:42:16;94501.50;;;12.00;36.53
11415;BME280;5763;42.714;23.244;2023-03-14T08:44:43;94508.59;;;12.15;35.68
11415;BME280;5763;42.714;23.244;2023-03-14T08:47:11;94506.00;;;12.21;35.87
11415;BME280;5763;42.714;23.244;2023-03-14T08:49:38;94495.09;;;12.35;35.31
11415;BME280;5763;42.714;23.244;2023-03-14T08:52:05;94486.75;;;12.53;35.00
11415;BME280;5763;42.714;23.244;2023-03-14T08:54:32;94487.75;;;12.88;33.96
11415;BME280;5763;42.714;23.244;2023-03-14T08:56:59;94486.97;;;13.11;33.62
11415;BME280;5763;42.714;23.244;2023-03-14T08:59:25;94475.91;;;13.35;34.18
11415;BME280;5763;42.714;23.244;2023-03-14T09:01:52;94469.78;;;13.54;33.23
11415;BME280;5763;42.714;23.244;2023-03-14T09:04:21;94454.31;;;13.71;32.98
11415;BME280;5763;42.714;23.244;2023-03-14T09:06:48;94463.97;;;13.81;32.46
11415;BME280;5763;42.714;23.244;2023-03-14T09:09:15;94452.38;;;14.06;32.00
11415;BME280;5763;42.714;23.244;2023-03-14T09:11:42;94445.72;;;14.27;31.82
11415;BME280;5763;42.714;23.244;2023-03-14T09:14:09;94458.66;;;14.61;31.82
11415;BME280;5763;42.714;23.244;2023-03-14T09:16:36;94448.16;;;14.80;31.24
11415;BME280;5763;42.714;23.244;2023-03-14T09:19:03;94447.06;;;14.72;30.00
11415;BME280;5763;42.714;23.244;2023-03-14T09:21:32;94433.84;;;14.76;29.53
11415;BME280;5763;42.714;23.244;2023-03-14T09:23:59;94432.72;;;14.88;29.73
11415;BME280;5763;42.714;23.244;2023-03-14T09:26:25;94424.19;;;14.86;29.60
11415;BME280;5763;42.714;23.244;2023-03-14T09:28:52;94422.69;;;15.10;29.53
11415;BME280;5763;42.714;23.244;2023-03-14T09:31:19;94423.00;;;14.92;29.28
11415;BME280;5763;42.714;23.244;2023-03-14T09:33:46;94407.75;;;15.42;28.77
11415;BME280;5763;42.714;23.244;2023-03-14T09:36:12;94408.75;;;15.70;27.52
11415;BME280;5763;42.714;23.244;2023-03-14T09:38:41;94412.56;;;16.09;28.11
11415;BME280;5763;42.714;23.244;2023-03-14T09:41:15;94394.50;;;16.50;27.33
11415;BME280;5763;42.714;23.244;2023-03-14T09:43:43;94391.31;;;16.68;26.23
11415;BME280;5763;42.714;23.244;2023-03-14T09:46:14;94383.28;;;16.70;26.41
11415;BME280;5763;42.714;23.244;2023-03-14T09:48:41;94379.91;;;17.08;25.95
11415;BME280;5763;42.714;23.244;2023-03-14T09:51:13;94378.50;;;17.46;24.61
11415;BME280;5763;42.714;23.244;2023-03-14T09:53:44;94378.72;;;17.37;25.09
11415;BME280;5763;42.714;23.244;2023-03-14T09:56:13;94361.13;;;17.51;24.40
11415;BME280;5763;42.714;23.244;2023-03-14T09:58:41;94359.31;;;17.31;24.55
11415;BME280;5763;42.714;23.244;2023-03-14T10:01:11;94357.03;;;17.13;24.24
11415;BME280;5763;42.714;23.244;2023-03-14T10:03:42;94346.25;;;17.37;25.51
11415;BME280;5763;42.714;23.244;2023-03-14T10:06:12;94337.25;;;17.65;24.67
11415;BME280;5763;42.714;23.244;2023-03-14T10:08:41;94329.72;;;17.49;24.81
11415;BME280;5763;42.714;23.244;2023-03-14T10:11:14;94336.72;;;17.88;24.03
11415;BME280;5763;42.714;23.244;2023-03-14T10:14:01;94322.59;;;18.02;24.51
11415;BME280;5763;42.714;23.244;2023-03-14T10:16:30;94315.72;;;18.42;24.26
11415;BME280;5763;42.714;23.244;2023-03-14T10:19:02;94321.59;;;18.79;24.13
11415;BME280;5763;42.714;23.244;2023-03-14T10:21:31;94318.56;;;18.83;23.16
11415;BME280;5763;42.714;23.244;2023-03-14T10:24:10;94312.50;;;18.84;23.20
11415;BME280;5763;42.714;23.244;2023-03-14T10:26:48;94309.53;;;19.17;22.91
11415;BME280;5763;42.714;23.244;2023-03-14T10:29:15;94292.25;;;19.41;22.29
11415;BME280;5763;42.714;23.244;2023-03-14T10:31:48;94284.13;;;19.43;22.41
11415;BME280;5763;42.714;23.244;2023-03-14T10:34:22;94274.78;;;19.11;23.31
11415;BME280;5763;42.714;23.244;2023-03-14T10:36:52;94281.63;;;19.04;21.86
11415;BME280;5763;42.714;23.244;2023-03-14T10:39:26;94280.47;;;18.89;22.60
11415;BME280;5763;42.714;23.244;2023-03-14T10:41:56;94263.28;;;18.96;22.77
11415;BME280;5763;42.714;23.244;2023-03-14T10:44:28;94253.19;;;19.33;22.56
11415;BME280;5763;42.714;23.244;2023-03-14T10:46:59;94245.28;;;19.43;22.56
11415;BME280;5763;42.714;23.244;2023-03-14T10:49:28;94237.44;;;19.12;22.03
11415;BME280;5763;42.714;23.244;2023-03-14T10:51:55;94244.97;;;19.17;21.22
11415;BME280;5763;42.714;23.244;2023-03-14T10:54:30;94231.03;;;19.57;21.78
11415;BME280;5763;42.714;23.244;2023-03-14T10:56:57;94223.44;;;19.87;21.64
11415;BME280;5763;42.714;23.244;2023-03-14T10:59:27;94238.13;;;19.82;21.58
11415;BME280;5763;42.714;23.244;2023-03-14T11:01:58;94220.56;;;19.93;21.60
11415;BME280;5763;42.714;23.244;2023-03-14T11:04:41;94221.69;;;19.84;20.61
11415;BME280;5763;42.714;23.244;2023-03-14T11:07:17;94206.53;;;20.09;20.56
11415;BME280;5763;42.714;23.244;2023-03-14T11:09:53;94200.63;;;20.37;21.51
11415;BME280;5763;42.714;23.244;2023-03-14T11:12:36;94194.25;;;20.42;21.63
11415;BME280;5763;42.714;23.244;2023-03-14T11:15:11;94184.91;;;20.76;21.21
11415;BME280;5763;42.714;23.244;2023-03-14T11:17:46;94170.81;;;21.06;20.44
11415;BME280;5763;42.714;23.244;2023-03-14T11:20:29;94179.31;;;21.13;20.24
11415;BME280;5763;42.714;23.244;2023-03-14T11:22:59;94164.28;;;21.35;20.43
11415;BME280;5763;42.714;23.244;2023-03-14T11:25:33;94162.53;;;21.76;21.00
11415;BME280;5763;42.714;23.244;2023-03-14T11:28:09;94156.63;;;22.19;20.02
11415;BME280;5763;42.714;23.244;2023-03-14T11:30:45;94148.72;;;22.10;20.48
11415;BME280;5763;42.714;23.244;2023-03-14T11:33:17;94153.81;;;22.19;20.56
11415;BME280;5763;42.714;23.244;2023-03-14T11:35:53;94138.81;;;22.68;20.41
11415;BME280;5763;42.714;23.244;2023-03-14T11:38:32;94130.41;;;22.81;20.63
11415;BME280;5763;42.714;23.244;2023-03-14T11:41:04;94126.94;;;22.88;20.57
11415;BME280;5763;42.714;23.244;2023-03-14T11:43:37;94111.78;;;23.17;20.30
11415;BME280;5763;42.714;23.244;2023-03-14T11:46:12;94109.09;;;23.12;20.67
11415;BME280;5763;42.714;23.244;2023-03-14T11:48:44;94105.72;;;23.06;20.54
11415;BME280;5763;42.714;23.244;2023-03-14T11:51:19;94105.38;;;22.89;19.90
11415;BME280;5763;42.714;23.244;2023-03-14T11:53:57;94111.31;;;22.52;20.00
11415;BME280;5763;42.714;23.244;2023-03-14T11:56:33;94104.94;;;22.31;20.57
11415;BME280;5763;42.714;23.244;2023-03-14T11:59:05;94103.16;;;22.07;21.27
11415;BME280;5763;42.714;23.244;2023-03-14T12:01:48;94087.41;;;21.97;21.41
11415;BME280;5763;42.714;23.244;2023-03-14T12:04:22;94079.81;;;21.97;20.97
11415;BME280;5763;42.714;23.244;2023-03-14T12:06:53;94065.75;;;22.03;20.33
11415;BME280;5763;42.714;23.244;2023-03-14T12:09:22;94058.47;;;22.33;21.55
11415;BME280;5763;42.714;23.244;2023-03-14T12:11:52;94057.72;;;22.46;20.93
11415;BME280;5763;42.714;23.244;2023-03-14T12:14:24;94055.53;;;22.72;19.97
11415;BME280;5763;42.714;23.244;2023-03-14T12:16:56;94048.94;;;23.03;19.91
11415;BME280;5763;42.714;23.244;2023-03-14T12:19:41;94023.56;;;23.42;19.93
11415;BME280;5763;42.714;23.244;2023-03-14T12:22:24;94029.31;;;23.16;20.70
11415;BME280;5763;42.714;23.244;2023-03-14T12:24:56;94018.81;;;22.81;20.01
11415;BME280;5763;42.714;23.244;2023-03-14T12:30:33;94035.41;;;22.66;19.72
11415;BME280;5763;42.714;23.244;2023-03-14T12:33:28;94019.47;;;22.54;19.59
11415;BME280;5763;42.714;23.244;2023-03-14T12:36:15;94020.47;;;22.43;20.20
11415;BME280;5763;42.714;23.244;2023-03-14T12:39:10;94022.63;;;22.17;20.23
11415;BME280;5763;42.714;23.244;2023-03-14T12:41:43;94008.41;;;22.28;20.70
11415;BME280;5763;42.714;23.244;2023-03-14T12:44:45;94007.53;;;22.33;20.47
11415;BME280;5763;42.714;23.244;2023-03-14T12:50:41;93984.16;;;22.36;20.94
11415;BME280;5763;42.714;23.244;2023-03-14T12:56:36;93967.88;;;22.88;19.83
11415;BME280;5763;42.714;23.244;2023-03-14T12:59:27;93963.63;;;23.15;19.61
11415;BME280;5763;42.714;23.244;2023-03-14T13:02:00;93963.81;;;23.17;20.06
11415;BME280;5763;42.714;23.244;2023-03-14T13:04:31;93957.88;;;22.93;19.69
11415;BME280;5763;42.714;23.244;2023-03-14T13:07:00;93951.03;;;23.29;19.87
11415;BME280;5763;42.714;23.244;2023-03-14T13:09:51;93958.06;;;23.51;20.71
11415;BME280;5763;42.714;23.244;2023-03-14T13:12:25;93941.41;;;23.10;20.18
11415;BME280;5763;42.714;23.244;2023-03-14T13:14:58;93940.53;;;23.15;20.27
11415;BME280;5763;42.714;23.244;2023-03-14T13:17:30;93935.97;;;22.97;19.68
11415;BME280;5763;42.714;23.244;2023-03-14T13:20:02;93934.44;;;22.96;19.70
11415;BME280;5763;42.714;23.244;2023-03-14T13:22:33;93917.84;;;23.18;19.11
11415;BME280;5763;42.714;23.244;2023-03-14T13:25:06;93909.72;;;23.00;19.62
11415;BME280;5763;42.714;23.244;2023-03-14T13:27:35;93905.44;;;22.99;19.07